createdAt,value
2022-09-24T00:03:00.470Z,9.26
2022-09-24T00:08:02.280Z,9.13
2022-09-24T00:13:04.089Z,9.23
2022-09-24T00:18:06.103Z,9.43
2022-09-24T00:23:09.440Z,9.54
2022-09-24T00:28:13.305Z,9.47
2022-09-24T00:33:14.814Z,9.59
2022-09-24T00:38:16.340Z,9.40
2022-09-24T00:43:30.249Z,9.25
2022-09-24T00:48:34.244Z,9.22
2022-09-24T00:53:36.376Z,9.16
2022-09-24T00:58:39.165Z,9.00
2022-09-24T01:03:42.420Z,8.93
2022-09-24T01:08:45.279Z,8.86
2022-09-24T01:14:11.750Z,8.75
2022-09-24T01:19:31.949Z,8.99
2022-09-24T01:24:47.456Z,8.98
2022-09-24T01:30:05.219Z,9.03
2022-09-24T01:35:13.765Z,9.01
2022-09-24T01:40:16.146Z,8.99
2022-09-24T01:45:18.926Z,9.00
2022-09-24T01:50:22.457Z,8.81
2022-09-24T01:55:28.542Z,8.83
2022-09-24T02:00:30.580Z,8.92
2022-09-24T02:05:43.002Z,9.07
2022-09-24T02:10:50.591Z,8.81
2022-09-24T02:15:57.603Z,8.86
2022-09-24T02:21:00.191Z,9.03
2022-09-24T02:26:02.459Z,8.71
2022-09-24T02:31:25.358Z,8.66
2022-09-24T02:36:28.986Z,8.68
2022-09-24T02:41:31.903Z,8.55
2022-09-24T02:46:33.498Z,8.55
2022-09-24T02:51:35.476Z,8.62
2022-09-24T02:56:37.531Z,8.36
2022-09-24T03:01:39.268Z,8.13
2022-09-24T03:06:40.906Z,8.24
2022-09-24T03:11:42.606Z,8.31
2022-09-24T03:16:44.378Z,8.47
2022-09-24T03:21:45.920Z,8.58
2022-09-24T03:26:47.519Z,8.58
2022-09-24T03:31:49.115Z,8.52
2022-09-24T03:36:50.739Z,8.41
2022-09-24T03:41:52.299Z,8.32
2022-09-24T03:46:53.857Z,8.17
2022-09-24T03:51:55.437Z,8.08
2022-09-24T03:56:57.032Z,7.93
2022-09-24T04:01:58.710Z,7.80
2022-09-24T04:07:00.330Z,7.74
2022-09-24T04:12:02.233Z,7.62
2022-09-24T04:17:03.843Z,7.65
2022-09-24T04:22:05.394Z,7.63
2022-09-24T04:27:06.969Z,7.74
2022-09-24T04:32:08.523Z,7.67
2022-09-24T04:37:10.176Z,7.62
2022-09-24T04:42:16.605Z,7.73
2022-09-24T04:47:18.250Z,7.68
2022-09-24T04:52:19.841Z,8.03
2022-09-24T04:57:22.372Z,8.00
2022-09-24T05:02:24.937Z,7.72
2022-09-24T05:07:26.854Z,7.63
2022-09-24T05:12:28.421Z,7.90
2022-09-24T05:17:30.061Z,8.02
2022-09-24T05:22:31.639Z,8.02
2022-09-24T05:27:33.214Z,7.97
2022-09-24T05:32:35.992Z,8.07
2022-09-24T05:37:38.344Z,8.36
2022-09-24T05:42:40.007Z,8.51
2022-09-24T05:47:41.605Z,8.54
2022-09-24T05:52:43.141Z,8.52
2022-09-24T05:57:44.676Z,8.40
2022-09-24T06:02:46.298Z,8.63
2022-09-24T06:07:48.045Z,8.57
2022-09-24T06:12:53.134Z,8.80
2022-09-24T06:17:55.208Z,9.10
2022-09-24T06:22:59.910Z,9.28
2022-09-24T06:28:04.188Z,9.43
2022-09-24T06:33:09.707Z,9.60
2022-09-24T06:38:13.862Z,9.70
2022-09-24T06:43:15.681Z,9.82
2022-09-24T06:48:18.062Z,9.92
2022-09-24T06:53:19.710Z,10.04
2022-09-24T06:58:21.443Z,10.00
2022-09-24T07:03:23.082Z,10.27
2022-09-24T07:08:24.725Z,10.35
2022-09-24T07:13:26.669Z,10.46
2022-09-24T07:18:28.362Z,10.79
2022-09-24T07:23:29.948Z,11.18
2022-09-24T07:28:31.642Z,11.27
2022-09-24T07:33:33.302Z,11.37
2022-09-24T07:38:36.526Z,11.54
2022-09-24T07:43:38.625Z,11.75
2022-09-24T07:48:40.301Z,12.03
2022-09-24T07:53:41.970Z,12.17
2022-09-24T07:58:43.898Z,12.39
2022-09-24T08:03:48.651Z,12.44
2022-09-24T08:08:51.031Z,12.55
2022-09-24T08:13:52.742Z,12.99
2022-09-24T08:18:54.617Z,13.40
2022-09-24T08:23:56.475Z,13.49
2022-09-24T08:28:58.571Z,13.59
2022-09-24T08:34:01.346Z,13.66
2022-09-24T08:39:02.962Z,14.16
2022-09-24T08:44:12.092Z,14.33
2022-09-24T08:49:24.562Z,14.39
2022-09-24T08:54:29.362Z,14.57
2022-09-24T08:59:38.352Z,14.61
2022-09-24T09:04:54.900Z,15.01
2022-09-24T09:10:00.675Z,15.47
2022-09-24T09:15:07.295Z,15.83
2022-09-24T09:20:18.405Z,16.47
2022-09-24T09:25:25.815Z,16.84
2022-09-24T09:30:37.514Z,17.20
2022-09-24T09:35:51.720Z,17.43
2022-09-24T09:41:13.792Z,17.19
2022-09-24T09:46:23.484Z,17.07
2022-09-24T09:51:26.663Z,17.33
2022-09-24T09:56:31.139Z,17.62
2022-09-24T10:01:35.933Z,18.08
2022-09-24T10:06:37.762Z,18.44
2022-09-24T10:11:40.048Z,19.32
2022-09-24T10:16:44.867Z,19.94
2022-09-24T10:21:47.180Z,20.55
2022-09-24T10:26:50.216Z,20.54
2022-09-24T10:31:51.930Z,21.09
2022-09-24T10:37:12.734Z,21.35
2022-09-24T10:42:25.494Z,21.44
2022-09-24T10:47:52.321Z,21.69
2022-09-24T10:53:31.473Z,21.40
2022-09-24T10:58:53.163Z,21.50
2022-09-24T11:04:22.694Z,21.63
2022-09-24T11:10:07.831Z,21.55
2022-09-24T11:15:20.205Z,21.59
2022-09-24T11:20:33.666Z,21.58
2022-09-24T11:25:44.414Z,21.48
2022-09-24T11:30:58.791Z,20.89
2022-09-24T11:36:08.739Z,21.39
2022-09-24T11:41:12.974Z,21.34
2022-09-24T11:46:37.691Z,21.29
2022-09-24T11:51:51.761Z,21.27
2022-09-24T11:57:27.973Z,20.76
2022-09-24T12:02:52.655Z,20.61
2022-09-24T12:08:04.251Z,20.66
2022-09-24T12:13:39.003Z,20.46
2022-09-24T12:18:55.735Z,19.97
2022-09-24T12:24:03.900Z,19.85
2022-09-24T12:29:48.630Z,19.28
2022-09-24T12:35:28.263Z,19.13
2022-09-24T12:41:03.166Z,18.97
2022-09-24T12:46:09.267Z,19.12
2022-09-24T12:51:12.732Z,18.85
2022-09-24T12:56:26.968Z,18.81
2022-09-24T13:01:32.247Z,18.76
2022-09-24T13:06:37.962Z,18.45
2022-09-24T13:11:40.062Z,18.31
2022-09-24T13:16:55.800Z,18.35
2022-09-24T13:21:59.557Z,18.73
2022-09-24T13:27:21.863Z,18.85
2022-09-24T13:32:24.698Z,18.98
2022-09-24T13:37:38.420Z,18.97
2022-09-24T13:42:49.777Z,18.66
2022-09-24T13:47:55.974Z,18.67
2022-09-24T13:53:06.466Z,18.36
2022-09-24T13:58:27.588Z,18.50
2022-09-24T14:03:34.960Z,18.46
2022-09-24T14:08:40.241Z,18.31
2022-09-24T14:13:46.004Z,18.35
2022-09-24T14:18:48.583Z,18.25
2022-09-24T14:24:07.280Z,18.30
2022-09-24T14:29:16.371Z,18.15
2022-09-24T14:34:27.112Z,17.96
2022-09-24T14:39:29.701Z,18.15
2022-09-24T14:44:31.222Z,18.38
2022-09-24T14:49:44.296Z,18.23
2022-09-24T14:54:45.825Z,17.97
2022-09-24T14:59:47.727Z,18.03
2022-09-24T15:04:55.648Z,17.98
2022-09-24T15:09:59.971Z,17.95
2022-09-24T15:15:15.186Z,17.93
2022-09-24T15:20:16.789Z,17.97
2022-09-24T15:25:18.410Z,17.71
2022-09-24T15:30:21.585Z,17.68
2022-09-24T15:35:24.076Z,17.54
2022-09-24T15:40:30.615Z,17.42
2022-09-24T15:45:32.332Z,17.46
2022-09-24T15:50:34.049Z,17.29
2022-09-24T15:55:36.623Z,17.26
2022-09-24T16:00:38.254Z,17.41
2022-09-24T16:05:39.871Z,17.35
2022-09-24T16:10:42.159Z,17.12
2022-09-24T16:15:44.084Z,17.21
2022-09-24T16:20:47.332Z,17.32
2022-09-24T16:25:57.373Z,17.11
2022-09-24T16:30:59.105Z,17.09
2022-09-24T16:36:08.075Z,16.57
2022-09-24T16:41:10.838Z,16.46
2022-09-24T16:46:16.379Z,16.54
2022-09-24T16:51:21.647Z,16.08
2022-09-24T16:56:23.470Z,15.80
2022-09-24T17:01:25.141Z,15.73
2022-09-24T17:06:29.671Z,15.52
2022-09-24T17:11:31.397Z,15.64
2022-09-24T17:16:34.603Z,15.39
2022-09-24T17:21:37.527Z,15.30
2022-09-24T17:26:39.723Z,15.08
2022-09-24T17:31:41.476Z,14.87
2022-09-24T17:36:43.200Z,14.86
2022-09-24T17:41:45.080Z,14.83
2022-09-24T17:46:46.886Z,14.80
2022-09-24T17:51:49.472Z,14.68
2022-09-24T17:56:51.072Z,14.21
2022-09-24T18:01:52.822Z,13.93
2022-09-24T18:06:54.585Z,13.97
2022-09-24T18:11:56.927Z,13.88
2022-09-24T18:16:59.853Z,13.62
2022-09-24T18:22:03.454Z,13.67
2022-09-24T18:27:05.301Z,13.36
2022-09-24T18:32:07.432Z,13.18
2022-09-24T18:37:09.637Z,12.98
2022-09-24T18:42:11.221Z,12.87
2022-09-24T18:47:14.764Z,12.84
2022-09-24T18:52:16.296Z,12.91
2022-09-24T18:57:17.844Z,12.83
2022-09-24T19:02:21.698Z,12.96
2022-09-24T19:07:23.326Z,12.79
2022-09-24T19:12:26.070Z,12.55
2022-09-24T19:17:27.561Z,12.52
2022-09-24T19:22:29.108Z,12.36
2022-09-24T19:27:30.708Z,12.43
2022-09-24T19:32:32.292Z,12.40
2022-09-24T19:37:33.836Z,12.46
2022-09-24T19:42:36.479Z,12.58
2022-09-24T19:47:38.141Z,12.55
2022-09-24T19:52:39.699Z,12.09
2022-09-24T19:57:41.402Z,11.95
2022-09-24T20:02:42.942Z,11.90
2022-09-24T20:07:45.818Z,11.63
2022-09-24T20:12:51.684Z,11.54
2022-09-24T20:17:53.815Z,11.61
2022-09-24T20:22:55.469Z,11.93
2022-09-24T20:27:56.981Z,11.71
2022-09-24T20:32:58.761Z,11.55
2022-09-24T20:38:00.338Z,11.50
2022-09-24T20:43:03.333Z,11.58
2022-09-24T20:48:04.957Z,11.51
2022-09-24T20:53:06.636Z,11.54
2022-09-24T20:58:09.116Z,11.79
2022-09-24T21:03:25.855Z,11.78
2022-09-24T21:08:37.466Z,11.56
2022-09-24T21:13:49.986Z,11.35
2022-09-24T21:18:54.502Z,11.37
2022-09-24T21:23:58.843Z,11.49
2022-09-24T21:29:12.326Z,11.43
2022-09-24T21:34:16.228Z,11.19
2022-09-24T21:39:20.783Z,10.99
2022-09-24T21:44:22.355Z,10.78
2022-09-24T21:49:23.958Z,10.85
2022-09-24T21:54:25.498Z,11.04
2022-09-24T21:59:45.768Z,11.00
2022-09-24T22:04:47.666Z,10.90
2022-09-24T22:09:50.047Z,10.81
2022-09-24T22:14:52.369Z,10.69
2022-09-24T22:19:54.191Z,10.51
2022-09-24T22:24:55.729Z,10.41
2022-09-24T22:29:57.909Z,10.27
2022-09-24T22:35:17.878Z,10.30
2022-09-24T22:40:19.438Z,10.69
2022-09-24T22:45:21.060Z,10.89
2022-09-24T22:50:22.937Z,10.68
2022-09-24T22:55:24.732Z,10.36
2022-09-24T23:00:26.328Z,10.17
2022-09-24T23:05:29.295Z,10.21
2022-09-24T23:10:30.947Z,10.31
2022-09-24T23:15:32.544Z,10.23
2022-09-24T23:20:34.136Z,10.22
2022-09-24T23:25:35.681Z,10.19
2022-09-24T23:30:37.486Z,10.07
2022-09-24T23:35:39.310Z,9.89
2022-09-24T23:40:41.239Z,9.82
2022-09-24T23:45:42.934Z,9.89
2022-09-24T23:50:44.682Z,9.85
2022-09-24T23:55:47.971Z,9.85
